^^
Station Historical Data
Daily Summary for January 14, 2017 Units:  English    Metric   Both
« Previous Day
Next Day »
Daily Weekly Monthly Yearly Custom
  High: Low: Average:
Temperature: 29.6 °F 21.7 °F 26.3 °F
Dew Point: 25.9 °F 12.2 °F 18.2 °F
Humidity: 93% 56% 72%
Wind Speed: 1.0mph 0.0mph 0.1mph
Wind Gust: 6.0mph - -
Wind- - SW
Pressure: 30.73 in 30.34 in -
Precipitation: 0.00 in    
Historical Graphs
 
 
Tabular Data for January 14, 2017
Time Temperature Dew Point Pressure Wind Wind Speed Wind Gust Humidity Rainfall Rate (Hourly) Conditions
00:00 28.5 °F 15.6 °F 30.70 in NNW 1.0 mph 3.0 mph 58% 0.00 in CLR
00:10 28.3 °F 15.0 °F 30.71 in North 1.0 mph 6.0 mph 57% 0.00 in CLR
00:20 28.2 °F 15.3 °F 30.70 in Calm   3.0 mph 58% 0.00 in CLR
00:30 28.0 °F 15.1 °F 30.70 in Calm   4.0 mph 58% 0.00 in CLR
00:40 27.7 °F 15.6 °F 30.71 in Calm   2.0 mph 60% 0.00 in CLR
00:50 27.4 °F 15.3 °F 30.70 in Calm   2.0 mph 60% 0.00 in CLR
01:00 27.1 °F 15.4 °F 30.70 in Calm   2.0 mph 61% 0.00 in CLR
01:10 26.9 °F 14.9 °F 30.70 in North 1.0 mph 4.0 mph 60% 0.00 in CLR
01:20 26.8 °F 14.8 °F 30.71 in North 1.0 mph 4.0 mph 60% 0.00 in CLR
01:30 26.7 °F 15.0 °F 30.71 in Calm   3.0 mph 61% 0.00 in CLR
01:40 26.5 °F 15.2 °F 30.72 in Calm   5.0 mph 62% 0.00 in CLR
01:50 26.4 °F 15.1 °F 30.72 in Calm   2.0 mph 62% 0.00 in CLR
02:00 26.3 °F 15.0 °F 30.72 in Calm   2.0 mph 62% 0.00 in CLR
02:10 26.3 °F 15.0 °F 30.72 in Calm   3.0 mph 62% 0.00 in FEW
02:20 26.2 °F 14.6 °F 30.73 in Calm   5.0 mph 61% 0.00 in FEW
02:30 26.0 °F 14.4 °F 30.73 in Calm   3.0 mph 61% 0.00 in FEW
02:40 25.9 °F 14.3 °F 30.73 in Calm   4.0 mph 61% 0.00 in FEW
02:50 25.8 °F 14.6 °F 30.73 in Calm   1.0 mph 62% 0.00 in FEW
03:00 25.5 °F 15.0 °F 30.73 in Calm   1.0 mph 64% 0.00 in FEW
03:10 25.4 °F 14.5 °F 30.73 in Calm   2.0 mph 63% 0.00 in FEW
03:20 25.4 °F 14.9 °F 30.73 in Calm   2.0 mph 64% 0.00 in FEW
03:30 25.2 °F 14.8 °F 30.73 in Calm   1.0 mph 64% 0.00 in FEW
03:40 25.0 °F 14.9 °F 30.72 in Calm   1.0 mph 65% 0.00 in FEW
03:50 24.9 °F 14.8 °F 30.72 in Calm   1.0 mph 65% 0.00 in FEW
04:00 24.8 °F 14.7 °F 30.72 in Calm   1.0 mph 65% 0.00 in FEW
04:10 24.8 °F 14.7 °F 30.72 in Calm   1.0 mph 65% 0.00 in CLR
04:20 24.6 °F 14.5 °F 30.72 in Calm   1.0 mph 65% 0.00 in CLR
04:30 24.4 °F 14.3 °F 30.72 in Calm   1.0 mph 65% 0.00 in CLR
04:40 24.3 °F 14.2 °F 30.72 in Calm   2.0 mph 65% 0.00 in CLR
04:50 24.2 °F 13.7 °F 30.72 in Calm   3.0 mph 64% 0.00 in CLR
05:00 24.1 °F 13.7 °F 30.72 in Calm   1.0 mph 64% 0.00 in CLR
05:10 24.0 °F 13.6 °F 30.72 in Calm   2.0 mph 64% 0.00 in CLR
05:20 23.9 °F 13.4 °F 30.72 in Calm   2.0 mph 64% 0.00 in CLR
05:30 23.6 °F 13.2 °F 30.71 in Calm   2.0 mph 64% 0.00 in CLR
05:40 23.4 °F 13.0 °F 30.71 in Calm   1.0 mph 64% 0.00 in CLR
05:50 23.2 °F 12.8 °F 30.71 in NNE 1.0 mph 5.0 mph 64% 0.00 in CLR
06:00 23.1 °F 12.7 °F 30.71 in Calm   2.0 mph 64% 0.00 in CLR
06:10 23.0 °F 13.3 °F 30.72 in Calm   1.0 mph 66% 0.00 in CLR
06:20 22.7 °F 13.0 °F 30.71 in Calm     66% 0.00 in CLR
06:30 22.5 °F 12.8 °F 30.71 in Calm   1.0 mph 66% 0.00 in CLR
06:40 22.3 °F 13.0 °F 30.71 in Calm     67% 0.00 in CLR
06:50 22.3 °F 13.0 °F 30.71 in Calm     67% 0.00 in CLR
07:00 22.3 °F 13.0 °F 30.71 in Calm   1.0 mph 67% 0.00 in CLR
07:10 22.3 °F 13.0 °F 30.71 in Calm   1.0 mph 67% 0.00 in CLR
07:20 22.1 °F 13.2 °F 30.71 in Calm   1.0 mph 68% 0.00 in CLR
07:30 21.9 °F 13.3 °F 30.70 in Calm     69% 0.00 in CLR
07:40 21.7 °F 12.8 °F 30.71 in Calm   1.0 mph 68% 0.00 in CLR
07:50 22.0 °F 13.0 °F 30.71 in Calm     68% 0.00 in CLR
08:00 22.2 °F 12.6 °F 30.71 in Calm   2.0 mph 66% 0.00 in CLR
08:10 22.6 °F 12.6 °F 30.71 in Calm   1.0 mph 65% 0.00 in CLR
08:20 22.7 °F 12.3 °F 30.70 in Calm   1.0 mph 64% 0.00 in CLR
08:30 22.8 °F 12.4 °F 30.70 in Calm   1.0 mph 64% 0.00 in CLR
08:40 23.1 °F 12.7 °F 30.70 in Calm   1.0 mph 64% 0.00 in CLR
08:50 23.2 °F 12.5 °F 30.70 in Calm   1.0 mph 63% 0.00 in CLR
09:00 23.3 °F 12.2 °F 30.70 in Calm   1.0 mph 62% 0.00 in CLR
09:10 23.6 °F 12.5 °F 30.70 in Calm   2.0 mph 62% 0.00 in CLR
09:20 24.2 °F 12.7 °F 30.70 in Calm   1.0 mph 61% 0.00 in CLR
09:30 24.6 °F 13.1 °F 30.70 in Calm   1.0 mph 61% 0.00 in CLR
09:40 25.0 °F 12.7 °F 30.70 in Calm   1.0 mph 59% 0.00 in CLR
09:50 25.8 °F 13.1 °F 30.70 in NNW 1.0 mph 4.0 mph 58% 0.00 in CLR
10:00 26.8 °F 13.6 °F 30.69 in North 1.0 mph 3.0 mph 57% 0.00 in CLR
10:10 27.0 °F 13.3 °F 30.69 in NW 1.0 mph 3.0 mph 56% 0.00 in CLR
10:20 27.6 °F 13.9 °F 30.70 in Calm   2.0 mph 56% 0.00 in CLR
10:30 27.9 °F 15.1 °F 30.69 in West 1.0 mph 3.0 mph 58% 0.00 in CLR
10:40 27.5 °F 14.6 °F 30.69 in WNW 1.0 mph 4.0 mph 58% 0.00 in CLR
10:50 27.4 °F 15.3 °F 30.68 in Calm   5.0 mph 60% 0.00 in CLR
11:00 27.4 °F 14.9 °F 30.67 in Calm   4.0 mph 59% 0.00 in CLR
11:10 27.6 °F 15.5 °F 30.65 in Calm   2.0 mph 60% 0.00 in FEW
11:20 28.0 °F 15.9 °F 30.64 in WNW 1.0 mph 2.0 mph 60% 0.00 in FEW
11:30 28.0 °F 15.9 °F 30.64 in Calm   4.0 mph 60% 0.00 in FEW
11:40 28.1 °F 15.6 °F 30.63 in Calm   2.0 mph 59% 0.00 in FEW
11:50 28.0 °F 15.9 °F 30.62 in Calm   5.0 mph 60% 0.00 in FEW
12:00 28.3 °F 16.2 °F 30.61 in Calm   1.0 mph 60% 0.00 in FEW
12:10 28.5 °F 15.6 °F 30.61 in WSW 1.0 mph 4.0 mph 58% 0.00 in SCT
12:20 29.1 °F 16.1 °F 30.59 in Calm   4.0 mph 58% 0.00 in SCT
12:30 29.2 °F 16.3 °F 30.59 in Calm   1.0 mph 58% 0.00 in SCT
12:40 29.2 °F 16.2 °F 30.58 in Calm   2.0 mph 58% 0.00 in SCT
12:50 29.4 °F 16.4 °F 30.58 in Calm   2.0 mph 58% 0.00 in SCT
13:00 29.2 °F 16.6 °F 30.58 in Calm   2.0 mph 59% 0.00 in SCT
13:10 29.2 °F 16.6 °F 30.58 in Calm   2.0 mph 59% 0.00 in SCT
13:20 29.1 °F 16.6 °F 30.58 in Calm   4.0 mph 59% 0.00 in SCT
13:30 29.4 °F 16.8 °F 30.56 in Calm   3.0 mph 59% 0.00 in SCT
13:40 29.6 °F 17.0 °F 30.56 in South 1.0 mph 4.0 mph 59% 0.00 in SCT
13:50 29.5 °F 16.9 °F 30.56 in South 1.0 mph 3.0 mph 59% 0.00 in SCT
14:00 29.4 °F 16.8 °F 30.55 in Calm   2.0 mph 59% 0.00 in SCT
14:10 29.4 °F 16.4 °F 30.53 in Calm   2.0 mph 58% 0.00 in BKN
14:20 29.3 °F 16.7 °F 30.53 in Calm   4.0 mph 59% 0.00 in BKN
14:30 29.4 °F 16.8 °F 30.53 in Calm   2.0 mph 59% 0.00 in BKN
14:40 29.4 °F 17.2 °F 30.53 in SSW 1.0 mph 5.0 mph 60% 0.00 in BKN
14:50 28.9 °F 17.9 °F 30.53 in Calm   4.0 mph 63% 0.00 in BKN
15:00 28.8 °F 18.5 °F 30.53 in SSW 1.0 mph 3.0 mph 65% 0.00 in BKN
15:10 28.4 °F 18.5 °F 30.53 in SW 1.0 mph 3.0 mph 66% 0.00 in -SN
15:20 28.0 °F 20.1 °F 30.53 in SSW 1.0 mph 5.0 mph 72% 0.00 in -SN
15:30 27.1 °F 21.2 °F 30.53 in Calm   5.0 mph 78% 0.00 in -SN
15:40 26.7 °F 21.7 °F 30.52 in Calm   3.0 mph 81% 0.00 in -SN
15:50 26.3 °F 21.8 °F 30.52 in Calm   2.0 mph 83% 0.00 in -SN
16:00 26.2 °F 22.0 °F 30.51 in Calm   2.0 mph 84% 0.00 in -SN
16:10 26.1 °F 22.2 °F 30.51 in Calm   1.0 mph 85% 0.00 in -SN
16:20 26.1 °F 22.5 °F 30.50 in Calm   2.0 mph 86% 0.00 in -SN
16:30 26.1 °F 22.4 °F 30.49 in Calm   2.0 mph 86% 0.00 in -SN
16:40 26.0 °F 22.7 °F 30.49 in Calm   1.0 mph 87% 0.00 in -SN
16:50 26.0 °F 22.9 °F 30.48 in Calm   2.0 mph 88% 0.00 in -SN
17:00 26.1 °F 23.0 °F 30.48 in Calm   1.0 mph 88% 0.00 in -SN
17:10 26.1 °F 23.3 °F 30.47 in Calm   2.0 mph 89% 0.00 in -SN
17:20 26.1 °F 23.3 °F 30.47 in Calm   2.0 mph 89% 0.00 in -SN
17:30 26.1 °F 23.3 °F 30.47 in Calm   1.0 mph 89% 0.00 in -SN
17:40 26.2 °F 23.7 °F 30.47 in Calm   1.0 mph 90% 0.00 in -SN
17:50 26.3 °F 23.8 °F 30.46 in Calm   1.0 mph 90% 0.00 in -SN
18:00 26.5 °F 24.0 °F 30.46 in Calm   1.0 mph 90% 0.00 in -SN
18:10 26.5 °F 24.0 °F 30.46 in Calm   2.0 mph 90% 0.00 in -SN
18:20 26.6 °F 24.3 °F 30.46 in Calm   2.0 mph 91% 0.00 in -SN
18:30 26.7 °F 24.7 °F 30.46 in Calm   1.0 mph 92% 0.00 in -SN
18:40 26.8 °F 24.8 °F 30.46 in Calm   2.0 mph 92% 0.00 in -SN
18:50 26.9 °F 24.9 °F 30.45 in Calm   1.0 mph 92% 0.00 in -SN
19:00 26.9 °F 24.9 °F 30.44 in Calm   1.0 mph 92% 0.00 in -SN
19:10 26.9 °F 24.9 °F 30.44 in Calm   1.0 mph 92% 0.00 in -SN
19:20 26.9 °F 25.1 °F 30.43 in Calm   1.0 mph 93% 0.00 in -SN
19:30 26.8 °F 25.0 °F 30.42 in Calm   1.0 mph 93% 0.00 in -SN
19:40 26.9 °F 25.1 °F 30.42 in Calm   2.0 mph 93% 0.00 in -SN
19:50 26.9 °F 25.1 °F 30.42 in Calm   1.0 mph 93% 0.00 in -SN
20:00 26.9 °F 25.1 °F 30.41 in Calm   2.0 mph 93% 0.00 in -SN
20:10 26.9 °F 25.1 °F 30.41 in Calm   2.0 mph 93% 0.00 in OVC
20:20 27.0 °F 25.2 °F 30.40 in Calm   3.0 mph 93% 0.00 in OVC
20:30 27.0 °F 25.2 °F 30.40 in Calm   1.0 mph 93% 0.00 in OVC
20:40 27.1 °F 25.3 °F 30.41 in Calm   1.0 mph 93% 0.00 in OVC
20:50 27.1 °F 25.3 °F 30.41 in Calm   1.0 mph 93% 0.00 in OVC
21:00 27.2 °F 25.5 °F 30.41 in Calm   1.0 mph 93% 0.00 in OVC
21:10 27.2 °F 25.5 °F 30.40 in Calm   2.0 mph 93% 0.00 in -SN
21:20 27.3 °F 25.5 °F 30.40 in Calm   1.0 mph 93% 0.00 in -SN
21:30 27.3 °F 25.5 °F 30.39 in Calm   2.0 mph 93% 0.00 in -SN
21:40 27.3 °F 25.5 °F 30.39 in Calm   1.0 mph 93% 0.00 in -SN
21:50 27.3 °F 25.5 °F 30.39 in Calm   2.0 mph 93% 0.00 in -SN
22:00 27.4 °F 25.6 °F 30.38 in Calm   1.0 mph 93% 0.00 in -SN
22:10 27.4 °F 25.7 °F 30.38 in Calm   1.0 mph 93% 0.00 in OVC
22:20 27.4 °F 25.6 °F 30.37 in Calm   1.0 mph 93% 0.00 in OVC
22:30 27.4 °F 25.6 °F 30.37 in Calm   2.0 mph 93% 0.00 in OVC
22:40 27.4 °F 25.6 °F 30.36 in Calm   2.0 mph 93% 0.00 in OVC
22:50 27.4 °F 25.7 °F 30.36 in Calm   2.0 mph 93% 0.00 in OVC
23:00 27.5 °F 25.7 °F 30.36 in Calm   1.0 mph 93% 0.00 in OVC
23:10 27.5 °F 25.7 °F 30.36 in Calm   2.0 mph 93% 0.00 in OVC
23:20 27.6 °F 25.8 °F 30.35 in Calm   2.0 mph 93% 0.00 in OVC
23:30 27.6 °F 25.8 °F 30.35 in Calm   3.0 mph 93% 0.00 in OVC
23:40 27.7 °F 25.9 °F 30.34 in Calm   2.0 mph 93% 0.00 in OVC
23:50 27.6 °F 25.8 °F 30.34 in SW 1.0 mph 2.0 mph 93% 0.00 in OVC
TarryTown NY Weather
Compliments of Weather Underground - 1.75 mb